»·PEaware :: N223CA KPDX-KEUG

N223CA :: KPDX-KEUG

FLIGHT INFORMATION

Flight Status: Arrived
Operator: Privately registered:
United States
More flights under this callsign
Pilot: Joe C. (19058)
Aircraft: EMBRAER BANDEIRANTE
(E110)
More flights by this aircraft type
Origin: KPDX Portland Intl
United States
Destination: KEUG Mahlon Sweet
United States
More flights between these airports :: More routes between these airports
Route: +PTLD1 BTG V23 EUG
File this flight plan on PilotEdge
Remarks:
Altitude:
(Current/Filed)
9,000ft
Speed:
(Current/Filed)
180kts
Departed: 07-Sep-18 11:35 AM
Arrived: 07-Sep-18 12:16 PM
Distance/Time
Traveled:
92nm/0:41
Distance/Time
To Go:
Arrived

Flight Plot

Page will automatically refresh every two minutes.

Flight plan parsing failed; only flown route is shown


Map Options




Map Legend


Flown Route
Filed Route
Departure Airport
Arrival Airport
Navaid (VOR, NDB)
Fix

Horizontal Profiles

Position Reports

Time Latitude Longitude Heading Altitude Ground
Speed
07-Sep-18 11:20 45.588261 -122.585149 297 21ft 0kts
07-Sep-18 11:21 45.588261 -122.585149 297 21ft 0kts
07-Sep-18 11:22 45.588261 -122.585149 297 21ft 0kts
07-Sep-18 11:23 45.588261 -122.585149 297 21ft 0kts
07-Sep-18 11:24 45.588261 -122.585149 297 21ft 0kts
07-Sep-18 11:25 45.588261 -122.585149 297 21ft 0kts
07-Sep-18 11:26 45.588261 -122.585149 297 21ft 0kts
07-Sep-18 11:27 45.588261 -122.585149 297 21ft 0kts
07-Sep-18 11:28 45.588261 -122.585149 297 21ft 0kts
07-Sep-18 11:29 45.588675 -122.585782 32 21ft 4kts
07-Sep-18 11:30 45.589224 -122.584545 299 21ft 23kts
07-Sep-18 11:31 45.593008 -122.594203 299 23ft 30kts
07-Sep-18 11:32 45.592794 -122.599869 224 23ft 22kts
07-Sep-18 11:33 45.588953 -122.602375 118 19ft 26kts
07-Sep-18 11:34 45.584583 -122.591180 118 21ft 34kts
07-Sep-18 11:35 45.581405 -122.583500 192 18ft 0kts
07-Sep-18 11:36 45.581405 -122.583500 192 18ft 0kts
07-Sep-18 11:37 45.582183 -122.588185 298 19ft 77kts
07-Sep-18 11:38 45.599114 -122.631963 295 1160ft 138kts
07-Sep-18 11:39 45.615665 -122.676223 295 2685ft 115kts
07-Sep-18 11:40 45.630175 -122.714916 294 3975ft 110kts
07-Sep-18 11:41 45.644625 -122.753444 294 5342ft 108kts
07-Sep-18 11:42 45.659150 -122.792207 295 6360ft 120kts
07-Sep-18 11:43 45.671042 -122.844791 239 6551ft 162kts
07-Sep-18 11:44 45.628709 -122.840510 163 7569ft 162kts
07-Sep-18 11:45 45.589352 -122.817373 163 8853ft 141kts
07-Sep-18 11:46 45.555874 -122.795218 163 10001ft 129kts
07-Sep-18 11:47 45.523353 -122.786633 185 10938ft 117kts
07-Sep-18 11:48 45.480839 -122.782662 181 10414ft 191kts
07-Sep-18 11:49 45.424961 -122.776788 181 9976ft 205kts
07-Sep-18 11:50 45.369475 -122.771001 181 10034ft 198kts
07-Sep-18 11:51 45.315827 -122.765454 182 10034ft 186kts
07-Sep-18 11:52 45.267762 -122.781835 200 10040ft 176kts
07-Sep-18 11:53 45.220773 -122.800204 200 10041ft 175kts
07-Sep-18 11:54 45.173954 -122.818522 200 10041ft 175kts
07-Sep-18 11:55 45.127028 -122.836871 200 10032ft 175kts
07-Sep-18 11:56 45.080175 -122.855166 200 10030ft 175kts
07-Sep-18 11:57 45.032940 -122.873574 199 10027ft 177kts
07-Sep-18 11:58 44.985379 -122.892072 199 10024ft 178kts
07-Sep-18 11:59 44.937316 -122.910728 198 10023ft 179kts
07-Sep-18 12:00 44.889812 -122.929136 199 10024ft 179kts
07-Sep-18 12:01 44.841781 -122.947718 199 10023ft 179kts
07-Sep-18 12:02 44.793900 -122.966215 199 10027ft 180kts
07-Sep-18 12:03 44.745697 -122.984799 199 10025ft 179kts
07-Sep-18 12:04 44.697830 -123.003224 199 10026ft 179kts
07-Sep-18 12:05 44.649822 -123.021672 199 10028ft 178kts
07-Sep-18 12:06 44.602278 -123.039912 199 10029ft 177kts
07-Sep-18 12:07 44.554669 -123.058131 200 10030ft 177kts
07-Sep-18 12:08 44.507387 -123.076208 200 10010ft 177kts
07-Sep-18 12:09 44.460135 -123.094241 200 9966ft 178kts
07-Sep-18 12:10 44.408777 -123.113787 200 9181ft 193kts
07-Sep-18 12:11 44.361388 -123.131844 200 7782ft 170kts
07-Sep-18 12:12 44.315793 -123.149100 199 6033ft 171kts
07-Sep-18 12:13 44.271689 -123.172369 229 4185ft 175kts
07-Sep-18 12:14 44.240012 -123.220030 208 2550ft 153kts
07-Sep-18 12:15 44.206894 -123.220295 178 1816ft 119kts
07-Sep-18 12:16 44.171732 -123.219652 179 1053ft 109kts
07-Sep-18 12:17 44.140042 -123.219153 180 499ft 107kts
07-Sep-18 12:18 44.125394 -123.217828 149 362ft 8kts
07-Sep-18 12:19 44.120268 -123.216984 179 365ft 30kts
07-Sep-18 12:20 44.116648 -123.215995 0 369ft 14kts
07-Sep-18 12:21 44.117857 -123.215216 38 369ft 0kts
07-Sep-18 12:24 44.117857 -123.215216 38 369ft 0kts

Navigation Log

Ident Type
Flight plan parsing failed, navigation log unavailable